Time;durP1;ratioP1;P1;durP2;ratioP2;P2;SDS_P1;SDS_P2;PMS_P1;PMS_P2;Temp;Humidity;BMP_temperature;BMP_pressure;BME280_temperature;BME280_humidity;BME280_pressure;Samples;Min_cycle;Max_cycle;Signal;HPM_P1;HPM_P2
2020/12/27 00:00:23;;;;;;;7.80;5.95;;;2.90;73.70;;;;;;5071652;28;20071;-68
2020/12/27 00:02:49;;;;;;;9.48;6.07;;;2.90;73.30;;;;;;5053633;28;20049;-68
2020/12/27 00:05:15;;;;;;;9.27;6.30;;;2.90;73.10;;;;;;5070169;28;20044;-67
2020/12/27 00:07:41;;;;;;;7.68;5.68;;;2.90;73.10;;;;;;5070358;28;20039;-66
2020/12/27 00:10:07;;;;;;;8.60;5.93;;;2.90;73.10;;;;;;5071326;28;20099;-67
2020/12/27 00:12:33;;;;;;;11.35;6.38;;;2.90;73.60;;;;;;5071473;28;20036;-68
2020/12/27 00:14:59;;;;;;;8.73;6.45;;;2.90;73.70;;;;;;5071036;28;20059;-67
2020/12/27 00:17:25;;;;;;;9.80;6.22;;;2.80;73.60;;;;;;5071678;28;20502;-67
2020/12/27 00:19:51;;;;;;;9.50;6.43;;;2.80;73.80;;;;;;5071436;28;20494;-67
2020/12/27 00:22:20;;;;;;;9.10;6.75;;;2.80;73.90;;;;;;5071551;28;20067;-66
2020/12/27 00:24:45;;;;;;;8.65;6.65;;;2.80;74.10;;;;;;5071658;28;20035;-67
2020/12/27 00:27:11;;;;;;;9.07;6.40;;;2.80;74.00;;;;;;5054922;28;20029;-67
2020/12/27 00:29:36;;;;;;;8.15;6.45;;;2.80;74.20;;;;;;5051206;28;20122;-67
2020/12/27 00:32:02;;;;;;;10.02;6.78;;;2.80;74.10;;;;;;5054607;28;20033;-67
2020/12/27 00:34:27;;;;;;;9.30;6.43;;;2.80;74.00;;;;;;5055092;28;20120;-67
2020/12/27 00:36:59;;;;;;;9.70;6.57;;;2.80;73.70;;;;;;5055584;28;20033;-67
2020/12/27 00:39:26;;;;;;;9.55;6.30;;;2.80;73.90;;;;;;5054164;28;20045;-65
2020/12/27 00:41:57;;;;;;;11.52;6.65;;;2.90;73.70;;;;;;5053912;28;20083;-67
2020/12/27 00:44:22;;;;;;;7.95;5.90;;;2.80;73.40;;;;;;5055037;28;20418;-66
2020/12/27 00:46:49;;;;;;;9.23;6.80;;;2.80;73.10;;;;;;5055476;28;20033;-67
2020/12/27 00:49:16;;;;;;;8.80;5.50;;;2.80;73.30;;;;;;5070908;28;20036;-68
2020/12/27 00:51:42;;;;;;;8.73;6.00;;;2.80;72.90;;;;;;5075266;28;20032;-67
2020/12/27 00:54:07;;;;;;;7.78;5.80;;;2.80;72.60;;;;;;5064811;28;20033;-68
2020/12/27 00:56:33;;;;;;;8.77;5.82;;;2.90;72.60;;;;;;5055521;28;20120;-67
2020/12/27 00:58:59;;;;;;;9.77;6.18;;;2.90;72.40;;;;;;5055516;28;20037;-66
2020/12/27 01:01:24;;;;;;;9.70;5.40;;;2.90;71.70;;;;;;5055582;28;20093;-66
2020/12/27 01:03:50;;;;;;;7.88;5.82;;;2.90;71.60;;;;;;5055392;28;20484;-67
2020/12/27 01:06:22;;;;;;;7.60;5.30;;;3.00;71.60;;;;;;5055242;28;20518;-67
2020/12/27 01:08:47;;;;;;;6.50;4.88;;;3.00;71.00;;;;;;5055581;28;20025;-68
2020/12/27 01:11:13;;;;;;;7.38;5.25;;;2.90;71.10;;;;;;5055811;28;20029;-68
2020/12/27 01:13:39;;;;;;;6.68;4.70;;;3.00;70.40;;;;;;5056537;28;20404;-67
2020/12/27 01:16:10;;;;;;;7.50;4.78;;;2.90;70.70;;;;;;5054971;28;20075;-68
2020/12/27 01:18:35;;;;;;;6.15;4.60;;;3.00;70.40;;;;;;5055152;28;20025;-67
2020/12/27 01:21:01;;;;;;;6.05;4.70;;;2.90;70.50;;;;;;5054819;28;20047;-67
2020/12/27 01:23:26;;;;;;;9.13;5.25;;;2.80;70.50;;;;;;5053745;28;20040;-68
2020/12/27 01:25:52;;;;;;;8.82;5.38;;;2.80;70.70;;;;;;5054772;28;20044;-67
2020/12/27 01:28:17;;;;;;;7.85;4.75;;;2.80;70.80;;;;;;5055068;28;20036;-68
2020/12/27 01:30:44;;;;;;;6.10;4.35;;;2.80;71.00;;;;;;5054678;28;20029;-67
2020/12/27 01:33:10;;;;;;;5.85;4.55;;;2.80;70.80;;;;;;5054981;28;20104;-67
2020/12/27 01:35:35;;;;;;;5.65;4.55;;;2.80;70.70;;;;;;5053583;28;20048;-68
2020/12/27 01:38:01;;;;;;;7.40;4.95;;;2.80;70.60;;;;;;5054811;28;20029;-67
2020/12/27 01:40:27;;;;;;;8.77;5.10;;;2.80;70.30;;;;;;5054680;28;20029;-69
2020/12/27 01:42:57;;;;;;;7.50;4.72;;;2.80;70.50;;;;;;5054175;28;20036;-68
2020/12/27 01:45:22;;;;;;;7.20;4.70;;;2.80;70.30;;;;;;5054638;28;20033;-68
2020/12/27 01:47:50;;;;;;;6.82;4.57;;;2.90;70.20;;;;;;5058130;28;20503;-67
2020/12/27 01:50:16;;;;;;;8.70;4.72;;;2.80;70.60;;;;;;5075861;28;20048;-69
2020/12/27 01:52:42;;;;;;;8.10;4.82;;;2.80;70.60;;;;;;5079149;28;20494;-66
2020/12/27 01:55:07;;;;;;;8.40;5.28;;;2.80;70.60;;;;;;5057454;28;20061;-67
2020/12/27 01:57:58;;;;;;;7.88;5.30;;;2.80;70.50;;;;;;5054422;28;20029;-67
2020/12/27 02:00:23;;;;;;;6.38;4.80;;;2.80;70.70;;;;;;5054161;28;20025;-68
2020/12/27 02:02:49;;;;;;;7.47;4.50;;;2.80;70.80;;;;;;5054450;28;20047;-67
2020/12/27 02:05:14;;;;;;;8.00;5.18;;;2.80;70.60;;;;;;5054052;28;20472;-67
2020/12/27 02:07:43;;;;;;;13.13;5.50;;;2.70;70.90;;;;;;5054164;28;20044;-67
2020/12/27 02:10:09;;;;;;;6.38;4.60;;;2.80;71.60;;;;;;5054043;28;20043;-67
2020/12/27 02:12:34;;;;;;;7.82;5.45;;;2.70;71.00;;;;;;5054065;28;20040;-67
2020/12/27 02:15:00;;;;;;;9.30;5.60;;;2.80;71.20;;;;;;5053317;28;20029;-67
2020/12/27 02:17:25;;;;;;;11.25;5.90;;;2.80;71.20;;;;;;5054157;28;20040;-67
2020/12/27 02:19:51;;;;;;;9.63;6.05;;;2.70;71.50;;;;;;5052371;28;20072;-67
2020/12/27 02:22:17;;;;;;;8.65;6.13;;;2.70;71.70;;;;;;5054100;28;20029;-67
2020/12/27 02:24:42;;;;;;;7.35;5.60;;;2.80;71.60;;;;;;5052384;28;20111;-65
2020/12/27 02:27:09;;;;;;;8.57;6.10;;;2.70;72.00;;;;;;5053009;28;20045;-66
2020/12/27 02:29:36;;;;;;;9.25;6.40;;;2.70;72.00;;;;;;5053852;28;20029;-66
2020/12/27 02:32:01;;;;;;;7.70;6.20;;;2.70;72.20;;;;;;5052615;28;20048;-67
2020/12/27 02:34:27;;;;;;;9.77;6.05;;;2.70;72.10;;;;;;5053621;28;20468;-67
2020/12/27 02:36:54;;;;;;;8.20;6.07;;;2.70;72.30;;;;;;5054317;28;20032;-66
2020/12/27 02:39:20;;;;;;;9.38;6.25;;;2.60;72.60;;;;;;5054334;28;20072;-67
2020/12/27 02:41:50;;;;;;;8.68;6.38;;;2.60;72.70;;;;;;5054117;28;20116;-66
2020/12/27 02:44:15;;;;;;;9.23;6.38;;;2.70;72.60;;;;;;5053527;28;20392;-66
2020/12/27 02:46:41;;;;;;;10.82;6.13;;;2.60;72.60;;;;;;5053798;28;20033;-66
2020/12/27 02:49:07;;;;;;;9.95;6.78;;;2.60;72.70;;;;;;5067765;28;20037;-66
2020/12/27 02:51:32;;;;;;;10.70;6.00;;;2.60;73.10;;;;;;5073571;28;20033;-66
2020/12/27 02:53:58;;;;;;;8.25;6.18;;;2.60;73.00;;;;;;5063716;28;20033;-66
2020/12/27 02:56:28;;;;;;;8.98;6.43;;;2.60;73.30;;;;;;5053485;28;20029;-68
2020/12/27 02:58:58;;;;;;;9.65;6.43;;;2.60;72.90;;;;;;5052981;28;20547;-67
2020/12/27 03:01:24;;;;;;;10.77;5.93;;;2.60;72.40;;;;;;5053360;28;20483;-67
2020/12/27 03:03:49;;;;;;;10.35;6.30;;;2.60;72.50;;;;;;5053059;28;20487;-67
2020/12/27 03:06:15;;;;;;;8.38;6.15;;;2.70;72.30;;;;;;5052751;28;20040;-67
2020/12/27 03:08:41;;;;;;;11.88;5.80;;;2.60;72.30;;;;;;5053029;28;20044;-67
2020/12/27 03:11:07;;;;;;;9.02;5.93;;;2.60;72.10;;;;;;5053017;28;20185;-67
2020/12/27 03:13:33;;;;;;;7.45;5.30;;;2.50;72.20;;;;;;5052621;28;20044;-66
2020/12/27 03:16:03;;;;;;;10.43;6.50;;;2.60;72.10;;;;;;5052603;28;20148;-66
2020/12/27 03:18:29;;;;;;;9.25;5.85;;;2.60;71.70;;;;;;5052583;28;20025;-67
2020/12/27 03:20:55;;;;;;;8.43;6.10;;;2.60;71.40;;;;;;5051474;28;20048;-67
2020/12/27 03:23:21;;;;;;;7.72;5.40;;;2.60;71.40;;;;;;5052765;28;20099;-68
2020/12/27 03:25:47;;;;;;;8.25;5.35;;;2.50;71.60;;;;;;5052389;28;20024;-67
2020/12/27 03:28:13;;;;;;;6.85;5.20;;;2.60;71.20;;;;;;5052738;28;20429;-67
2020/12/27 03:30:38;;;;;;;9.25;5.28;;;2.60;71.10;;;;;;5052384;28;20112;-68
2020/12/27 03:33:04;;;;;;;10.57;5.60;;;2.50;71.10;;;;;;5052398;28;20063;-67
2020/12/27 03:35:29;;;;;;;8.55;5.32;;;2.50;71.30;;;;;;5052407;28;20053;-67
2020/12/27 03:37:55;;;;;;;7.28;4.95;;;2.50;71.40;;;;;;5053244;28;20090;-67
2020/12/27 03:40:21;;;;;;;7.68;5.43;;;2.60;71.20;;;;;;5052413;28;20383;-67
2020/12/27 03:42:47;;;;;;;7.57;5.50;;;2.60;71.10;;;;;;5050792;28;20095;-67
2020/12/27 03:45:13;;;;;;;8.57;5.78;;;2.60;71.00;;;;;;5052192;28;20064;-67
2020/12/27 03:47:39;;;;;;;6.85;4.97;;;2.50;70.90;;;;;;5054501;28;20404;-66
2020/12/27 03:50:05;;;;;;;7.53;5.18;;;2.60;70.60;;;;;;5072539;28;20043;-67
2020/12/27 03:52:30;;;;;;;11.82;5.63;;;2.50;70.30;;;;;;5072289;28;20036;-67
2020/12/27 03:54:56;;;;;;;9.27;5.10;;;2.60;70.50;;;;;;5055184;28;20064;-66
2020/12/27 03:57:21;;;;;;;10.15;6.40;;;2.50;70.50;;;;;;5052318;28;20357;-67
2020/12/27 03:59:47;;;;;;;8.68;5.78;;;2.50;70.70;;;;;;5051574;28;20507;-67
2020/12/27 04:02:13;;;;;;;10.63;6.18;;;2.50;71.50;;;;;;5051106;28;20387;-67
2020/12/27 04:04:38;;;;;;;8.93;6.22;;;2.50;71.30;;;;;;5050941;28;20048;-67
2020/12/27 04:07:04;;;;;;;10.63;6.63;;;2.50;71.50;;;;;;5051557;28;20064;-67
2020/12/27 04:09:30;;;;;;;9.38;6.60;;;2.50;71.80;;;;;;5051842;28;20392;-68
2020/12/27 04:11:55;;;;;;;8.48;6.20;;;2.40;72.20;;;;;;5052200;28;20048;-67
2020/12/27 04:14:21;;;;;;;9.98;7.20;;;2.40;72.40;;;;;;5051388;28;20025;-67
2020/12/27 04:16:47;;;;;;;9.10;6.22;;;2.40;72.60;;;;;;5052210;28;20547;-67
2020/12/27 04:19:12;;;;;;;10.50;7.15;;;2.30;72.60;;;;;;5051022;28;20037;-67
2020/12/27 04:21:38;;;;;;;10.38;7.40;;;2.30;72.70;;;;;;5052090;28;20473;-67
2020/12/27 04:24:07;;;;;;;10.93;8.23;;;2.20;72.80;;;;;;5051505;28;20381;-67
2020/12/27 04:26:33;;;;;;;11.73;8.15;;;2.30;72.70;;;;;;5050371;28;20064;-68
2020/12/27 04:28:58;;;;;;;11.73;8.02;;;2.30;72.70;;;;;;5051744;28;20079;-67
2020/12/27 04:31:25;;;;;;;13.65;8.30;;;2.30;73.10;;;;;;5051666;28;20060;-67
2020/12/27 04:33:52;;;;;;;13.00;7.78;;;2.20;73.30;;;;;;5051410;28;20062;-67
2020/12/27 04:36:18;;;;;;;12.93;8.45;;;2.30;73.40;;;;;;5051718;28;20131;-66
2020/12/27 04:38:44;;;;;;;10.55;8.05;;;2.30;73.60;;;;;;5051521;28;20502;-67
2020/12/27 04:41:13;;;;;;;12.05;8.50;;;2.30;73.50;;;;;;5051823;28;20040;-68
2020/12/27 04:43:40;;;;;;;13.20;8.93;;;2.40;73.30;;;;;;5048793;28;20044;-66
2020/12/27 04:46:09;;;;;;;13.93;9.00;;;2.30;73.50;;;;;;5051788;28;20036;-67
2020/12/27 04:48:37;;;;;;;11.25;8.77;;;2.30;73.30;;;;;;5060649;28;20601;-68
2020/12/27 04:51:05;;;;;;;14.98;8.70;;;2.30;73.20;;;;;;5071001;28;20063;-67
2020/12/27 04:53:33;;;;;;;16.48;9.07;;;2.30;73.50;;;;;;5071693;28;20133;-67
2020/12/27 04:56:00;;;;;;;13.93;8.80;;;2.30;73.20;;;;;;5072157;28;20060;-68
2020/12/27 04:58:26;;;;;;;11.48;8.27;;;2.30;73.30;;;;;;5072196;28;20020;-67
2020/12/27 05:00:52;;;;;;;12.95;8.82;;;2.20;72.90;;;;;;5071435;28;20501;-68
2020/12/27 05:03:17;;;;;;;12.57;8.02;;;2.30;72.10;;;;;;5072076;28;20162;-67
2020/12/27 05:05:43;;;;;;;12.32;8.60;;;2.20;71.40;;;;;;5071442;28;20502;-67
2020/12/27 05:08:09;;;;;;;12.07;7.93;;;2.30;71.80;;;;;;5053740;28;20032;-68
2020/12/27 05:10:45;;;;;;;15.05;8.32;;;2.20;72.20;;;;;;5071383;28;20486;-67
2020/12/27 05:13:11;;;;;;;13.23;8.27;;;2.20;72.30;;;;;;5071331;28;20118;-68
2020/12/27 05:15:40;;;;;;;13.38;8.48;;;2.30;72.40;;;;;;5070711;28;20033;-67
2020/12/27 05:18:07;;;;;;;10.57;7.13;;;2.30;72.30;;;;;;5073015;28;20348;-68
2020/12/27 05:20:34;;;;;;;12.43;7.75;;;2.20;72.20;;;;;;5074689;28;20028;-67
2020/12/27 05:23:01;;;;;;;11.73;8.23;;;2.20;72.50;;;;;;5075113;28;20067;-68
2020/12/27 05:25:31;;;;;;;10.65;7.82;;;2.10;72.70;;;;;;5072343;28;20027;-68
2020/12/27 05:28:08;;;;;;;10.18;7.07;;;2.10;72.80;;;;;;5053610;28;20043;-67
2020/12/27 05:30:35;;;;;;;12.95;7.80;;;2.10;72.80;;;;;;5054819;28;20041;-67
2020/12/27 05:33:00;;;;;;;9.68;6.72;;;2.00;72.70;;;;;;5054760;28;20033;-67
2020/12/27 05:35:26;;;;;;;9.20;6.97;;;2.00;72.90;;;;;;5054100;28;20044;-67
2020/12/27 05:37:52;;;;;;;13.82;7.90;;;2.00;72.60;;;;;;5053400;28;20037;-68
2020/12/27 05:40:19;;;;;;;12.88;7.30;;;2.00;72.80;;;;;;5055038;28;20040;-67
2020/12/27 05:42:46;;;;;;;10.68;7.45;;;2.10;72.70;;;;;;5054775;28;20409;-66
2020/12/27 05:45:16;;;;;;;11.18;7.10;;;2.00;72.70;;;;;;5053176;28;20118;-67
2020/12/27 05:47:43;;;;;;;11.32;7.68;;;2.10;72.50;;;;;;5056922;28;20060;-66
2020/12/27 05:50:14;;;;;;;9.38;6.78;;;2.00;72.50;;;;;;5074293;28;20390;-67
2020/12/27 05:52:48;;;;;;;11.55;6.47;;;2.00;72.50;;;;;;5074332;28;20029;-66
2020/12/27 05:55:19;;;;;;;8.80;6.40;;;2.00;72.40;;;;;;5054483;28;20033;-65
2020/12/27 05:57:50;;;;;;;10.73;6.45;;;2.00;72.10;;;;;;5054212;28;20091;-66
2020/12/27 06:00:19;;;;;;;10.82;6.35;;;2.00;72.10;;;;;;5054269;28;20408;-65
2020/12/27 06:02:44;;;;;;;7.75;6.03;;;2.00;72.00;;;;;;5055250;28;20518;-66
2020/12/27 06:05:12;;;;;;;7.28;5.55;;;2.00;72.30;;;;;;5054537;28;20037;-65
2020/12/27 06:07:45;;;;;;;10.43;6.53;;;2.00;72.30;;;;;;5054220;28;20441;-66
2020/12/27 06:10:14;;;;;;;9.18;6.22;;;1.90;72.30;;;;;;5054072;28;20127;-67
2020/12/27 06:12:52;;;;;;;11.43;6.60;;;2.00;72.00;;;;;;5054082;28;20051;-66
2020/12/27 06:15:28;;;;;;;7.80;5.80;;;1.90;71.90;;;;;;5053679;28;20096;-66
2020/12/27 06:17:56;;;;;;;11.13;5.85;;;2.00;72.00;;;;;;5054097;28;20083;-66
2020/12/27 06:20:22;;;;;;;9.27;6.00;;;2.00;71.70;;;;;;5054072;28;20036;-66
2020/12/27 06:22:50;;;;;;;9.38;5.75;;;2.00;71.70;;;;;;5053838;28;20086;-67
2020/12/27 06:25:17;;;;;;;8.30;6.28;;;2.00;71.40;;;;;;5062005;22;20059;-61
2020/12/27 06:27:43;;;;;;;11.70;5.80;;;2.00;71.50;;;;;;5034330;28;20394;-61
2020/12/27 06:30:15;;;;;;;8.13;5.60;;;2.00;71.30;;;;;;5034305;28;20116;-62
2020/12/27 06:32:48;;;;;;;10.05;5.97;;;2.00;71.20;;;;;;5034770;28;20553;-61
2020/12/27 06:35:13;;;;;;;10.27;5.68;;;2.00;71.30;;;;;;5034620;28;20111;-60
2020/12/27 06:37:41;;;;;;;10.00;5.95;;;2.00;71.30;;;;;;5034235;28;20488;-60
2020/12/27 06:40:07;;;;;;;6.80;5.45;;;2.00;71.30;;;;;;5033650;28;20112;-61
2020/12/27 06:42:34;;;;;;;7.90;5.63;;;2.00;71.20;;;;;;5033886;28;20175;-61
2020/12/27 06:45:00;;;;;;;9.90;5.30;;;2.00;71.40;;;;;;5032009;28;20091;-59
2020/12/27 06:47:53;;;;;;;9.95;5.38;;;1.90;71.40;;;;;;5016088;28;20041;-60
2020/12/27 06:50:20;;;;;;;11.38;6.20;;;2.00;71.40;;;;;;5030298;28;20049;-59
2020/12/27 06:52:46;;;;;;;6.35;5.10;;;2.00;71.50;;;;;;5033812;28;20041;-61
2020/12/27 06:55:31;;;;;;;9.93;6.20;;;1.90;71.60;;;;;;5033191;28;20029;-60
2020/12/27 06:58:20;;;;;;;9.27;5.57;;;1.90;71.40;;;;;;5033708;28;20034;-58
2020/12/27 07:00:47;;;;;;;6.68;5.25;;;1.90;71.40;;;;;;5015413;28;20041;-61
2020/12/27 07:03:18;;;;;;;7.10;5.35;;;1.90;71.20;;;;;;5033708;28;20038;-60
2020/12/27 07:05:44;;;;;;;9.45;5.50;;;2.00;71.00;;;;;;5015715;28;20036;-62
2020/12/27 07:08:40;;;;;;;11.23;5.68;;;1.90;71.30;;;;;;5016187;28;20037;-60
2020/12/27 07:11:06;;;;;;;7.47;4.72;;;2.00;70.80;;;;;;5033759;28;20029;-60
2020/12/27 07:13:40;;;;;;;5.97;4.63;;;1.90;70.90;;;;;;5034539;28;20034;-59
2020/12/27 07:16:12;;;;;;;11.20;6.10;;;1.90;71.00;;;;;;5016852;28;20488;-60
2020/12/27 07:18:38;;;;;;;10.30;5.80;;;1.80;70.80;;;;;;5021908;28;20038;-60
2020/12/27 07:21:09;;;;;;;12.57;7.00;;;1.90;70.50;;;;;;5018490;28;20531;-59
2020/12/27 07:23:37;;;;;;;9.82;5.13;;;1.80;70.90;;;;;;5035632;28;20033;-60
2020/12/27 07:26:04;;;;;;;7.93;5.03;;;1.80;71.10;;;;;;5034512;28;20480;-59
2020/12/27 07:28:30;;;;;;;13.90;8.50;;;1.80;70.50;;;;;;5016315;28;20045;-60
2020/12/27 07:31:03;;;;;;;7.32;4.68;;;1.80;70.50;;;;;;5015736;28;20080;-61
2020/12/27 07:33:35;;;;;;;8.00;5.60;;;1.80;70.50;;;;;;5033103;28;20060;-59
2020/12/27 07:36:08;;;;;;;7.95;5.10;;;1.80;70.40;;;;;;5032848;28;20033;-60
2020/12/27 07:38:39;;;;;;;11.18;5.05;;;1.80;70.40;;;;;;5032967;28;20032;-61
2020/12/27 07:41:08;;;;;;;7.78;5.20;;;1.70;70.50;;;;;;5032675;28;20021;-59
2020/12/27 07:43:46;;;;;;;6.88;4.90;;;1.80;70.10;;;;;;5031052;28;20048;-65
2020/12/27 07:46:14;;;;;;;7.15;4.53;;;1.70;70.20;;;;;;5032739;28;20033;-60
2020/12/27 07:48:41;;;;;;;8.57;5.10;;;1.70;70.00;;;;;;5032787;28;20034;-58
2020/12/27 07:51:14;;;;;;;6.65;4.70;;;1.60;70.20;;;;;;5033505;28;20040;-61
2020/12/27 07:53:47;;;;;;;7.35;5.32;;;1.70;70.30;;;;;;5039245;28;20033;-60
2020/12/27 07:56:32;;;;;;;8.63;5.20;;;1.70;70.00;;;;;;5053329;28;20021;-61
2020/12/27 07:59:04;;;;;;;7.82;4.57;;;1.70;69.90;;;;;;5035918;28;20036;-58
2020/12/27 08:01:34;;;;;;;6.13;4.63;;;1.80;69.90;;;;;;5035616;28;20033;-60
2020/12/27 08:04:02;;;;;;;7.78;4.60;;;1.80;69.40;;;;;;5034567;28;20041;-59
2020/12/27 08:06:30;;;;;;;8.45;5.68;;;1.70;69.40;;;;;;5052360;28;20033;-61
2020/12/27 08:09:07;;;;;;;7.50;4.97;;;1.80;69.30;;;;;;5052246;28;20149;-60
2020/12/27 08:11:37;;;;;;;7.93;4.97;;;1.90;69.10;;;;;;5052419;28;20047;-60
2020/12/27 08:14:05;;;;;;;6.88;4.85;;;1.80;68.90;;;;;;5052559;28;20025;-61
2020/12/27 08:16:32;;;;;;;7.45;5.40;;;1.90;69.10;;;;;;5053399;28;20029;-62
2020/12/27 08:19:20;;;;;;;11.60;6.57;;;1.90;68.90;;;;;;5054198;28;20057;-60
2020/12/27 08:21:46;;;;;;;8.00;4.70;;;1.90;68.90;;;;;;5053159;28;20040;-60
2020/12/27 08:24:18;;;;;;;9.70;4.20;;;1.90;68.30;;;;;;5034723;28;20041;-58
2020/12/27 08:26:46;;;;;;;6.72;4.80;;;1.90;68.20;;;;;;5052472;28;20487;-61
2020/12/27 08:29:20;;;;;;;8.80;5.72;;;1.90;67.70;;;;;;5034496;28;20036;-60
2020/12/27 08:31:48;;;;;;;7.85;4.82;;;1.90;67.50;;;;;;5052248;28;20028;-61
2020/12/27 08:34:19;;;;;;;5.63;4.38;;;1.90;67.00;;;;;;5052051;28;20124;-62
2020/12/27 08:36:50;;;;;;;7.85;4.50;;;1.90;66.40;;;;;;5052385;28;20032;-60
2020/12/27 08:39:29;;;;;;;5.20;4.03;;;1.90;66.50;;;;;;5052074;28;20056;-60
2020/12/27 08:42:11;;;;;;;6.53;4.70;;;2.00;65.80;;;;;;5052618;28;20033;-61
2020/12/27 08:45:14;;;;;;;7.75;4.20;;;1.90;65.80;;;;;;5051258;28;20128;-59
2020/12/27 08:47:46;;;;;;;10.52;6.22;;;2.00;65.00;;;;;;5055185;28;20091;-60
2020/12/27 08:50:22;;;;;;;8.38;5.38;;;2.00;64.70;;;;;;5038856;28;20025;-58
2020/12/27 08:52:50;;;;;;;9.52;4.57;;;2.00;64.60;;;;;;5024307;28;20045;-59
2020/12/27 08:55:20;;;;;;;7.00;4.65;;;2.00;64.30;;;;;;5005172;28;20408;-61
2020/12/27 08:57:46;;;;;;;7.57;4.95;;;2.00;63.70;;;;;;5036710;28;20083;-59
2020/12/27 09:00:14;;;;;;;7.93;4.47;;;2.00;63.70;;;;;;5036016;28;20037;-59
2020/12/27 09:02:40;;;;;;;6.45;4.10;;;2.00;63.90;;;;;;5002351;28;20033;-61
2020/12/27 09:05:13;;;;;;;8.60;5.25;;;2.00;63.90;;;;;;5017604;28;20411;-62
2020/12/27 09:07:41;;;;;;;6.43;5.07;;;2.00;63.90;;;;;;5035391;28;20079;-61
2020/12/27 09:10:20;;;;;;;6.57;4.75;;;2.00;63.80;;;;;;5035611;28;20446;-60
2020/12/27 09:13:03;;;;;;;7.07;4.55;;;2.00;63.70;;;;;;5018458;28;20044;-60
2020/12/27 09:15:44;;;;;;;7.20;4.70;;;2.10;63.40;;;;;;5018583;28;20394;-61
2020/12/27 09:18:14;;;;;;;10.68;5.13;;;2.10;63.60;;;;;;5035766;28;20026;-60
2020/12/27 09:20:42;;;;;;;8.50;4.90;;;2.10;63.50;;;;;;5035263;28;20079;-61
2020/12/27 09:23:15;;;;;;;16.75;10.63;;;2.20;62.80;;;;;;5018359;28;20040;-62
2020/12/27 09:25:41;;;;;;;7.85;5.22;;;2.10;63.10;;;;;;5035418;28;20056;-59
2020/12/27 09:28:18;;;;;;;9.07;5.30;;;2.20;62.90;;;;;;5018328;28;20556;-62
2020/12/27 09:30:48;;;;;;;9.48;4.72;;;2.20;62.70;;;;;;5018663;28;20045;-61
2020/12/27 09:33:20;;;;;;;7.25;5.50;;;2.20;62.30;;;;;;5035837;28;20029;-60
2020/12/27 09:36:00;;;;;;;7.25;5.68;;;2.20;62.60;;;;;;5034884;28;20041;-61
2020/12/27 09:38:28;;;;;;;6.47;5.10;;;2.20;62.60;;;;;;5035240;28;20029;-60
2020/12/27 09:41:13;;;;;;;6.78;5.25;;;2.10;62.20;;;;;;5017351;28;20554;-59
2020/12/27 09:43:55;;;;;;;8.10;6.05;;;2.20;62.20;;;;;;5019556;28;20525;-58
2020/12/27 09:46:43;;;;;;;10.48;5.65;;;2.20;61.60;;;;;;5037654;28;20033;-60
2020/12/27 09:49:31;;;;;;;8.60;5.70;;;2.20;61.80;;;;;;5036812;28;20040;-59
2020/12/27 09:52:07;;;;;;;7.43;5.78;;;2.20;62.10;;;;;;5036186;28;20026;-60
2020/12/27 09:54:37;;;;;;;8.13;5.97;;;2.30;61.60;;;;;;5034690;28;20431;-60
2020/12/27 09:57:30;;;;;;;7.72;6.20;;;2.30;61.30;;;;;;5034676;28;20028;-60
2020/12/27 09:59:55;;;;;;;9.43;5.93;;;2.30;61.40;;;;;;5034949;28;20037;-59
2020/12/27 10:02:21;;;;;;;10.20;6.68;;;2.20;61.40;;;;;;5034393;28;20038;-59
2020/12/27 10:04:47;;;;;;;9.35;6.47;;;2.20;61.40;;;;;;5016406;28;20029;-59
2020/12/27 10:07:13;;;;;;;11.13;6.30;;;2.20;61.40;;;;;;5034930;28;20037;-62
2020/12/27 10:09:38;;;;;;;9.00;5.78;;;2.30;61.00;;;;;;5016972;28;20055;-60
2020/12/27 10:12:04;;;;;;;8.02;5.75;;;2.30;61.20;;;;;;5034257;28;20048;-62
2020/12/27 10:14:30;;;;;;;8.43;6.20;;;2.20;61.10;;;;;;5016558;28;20484;-61
2020/12/27 10:16:57;;;;;;;15.80;9.40;;;2.30;60.80;;;;;;5017317;28;20026;-61
2020/12/27 10:19:24;;;;;;;10.05;5.38;;;2.30;61.10;;;;;;5034496;28;20555;-62
2020/12/27 10:21:50;;;;;;;8.27;5.22;;;2.40;60.50;;;;;;5034337;28;20057;-60
2020/12/27 10:24:16;;;;;;;7.30;5.22;;;2.30;59.80;;;;;;5034300;28;20073;-60
2020/12/27 10:26:49;;;;;;;6.72;4.90;;;2.20;59.80;;;;;;5040121;28;20049;-59
2020/12/27 10:29:15;;;;;;;9.05;5.43;;;2.30;60.00;;;;;;5054290;28;20119;-62
2020/12/27 10:31:40;;;;;;;9.55;6.03;;;2.20;59.80;;;;;;5036117;28;20044;-61
2020/12/27 10:34:06;;;;;;;5.95;4.45;;;2.30;59.50;;;;;;5053951;28;20119;-60
2020/12/27 10:36:32;;;;;;;7.60;4.80;;;2.30;59.50;;;;;;5054434;28;20480;-60
2020/12/27 10:38:57;;;;;;;7.93;5.25;;;2.40;59.70;;;;;;5036357;28;20017;-59
2020/12/27 10:41:23;;;;;;;10.13;7.47;;;2.40;60.10;;;;;;5053634;28;20361;-62
2020/12/27 10:43:49;;;;;;;7.00;5.55;;;2.30;60.80;;;;;;5053372;28;20040;-62
2020/12/27 10:46:17;;;;;;;7.25;5.18;;;2.30;61.10;;;;;;5035789;28;20035;-58
2020/12/27 10:48:43;;;;;;;6.97;5.22;;;2.40;61.30;;;;;;5042705;28;20567;-59
2020/12/27 10:51:09;;;;;;;7.80;5.50;;;2.40;61.60;;;;;;5033570;28;20121;-62
2020/12/27 10:53:36;;;;;;;8.40;5.25;;;2.30;61.50;;;;;;5033468;28;20051;-61
2020/12/27 10:56:03;;;;;;;6.13;5.10;;;2.30;61.20;;;;;;5033766;28;20513;-60
2020/12/27 10:58:28;;;;;;;6.40;5.28;;;2.30;61.30;;;;;;5016614;28;20053;-63
2020/12/27 11:00:54;;;;;;;7.90;4.90;;;2.40;61.70;;;;;;5016288;28;20396;-63
2020/12/27 11:03:19;;;;;;;8.20;4.97;;;2.30;61.50;;;;;;5033982;28;20084;-64
2020/12/27 11:05:48;;;;;;;6.25;4.70;;;2.30;61.70;;;;;;5033551;28;20061;-62
2020/12/27 11:08:14;;;;;;;9.63;6.05;;;2.40;61.70;;;;;;5033348;28;20045;-64
2020/12/27 11:10:43;;;;;;;10.15;5.57;;;2.30;61.70;;;;;;5015621;28;20037;-62
2020/12/27 11:13:09;;;;;;;9.27;5.45;;;2.30;61.70;;;;;;5033436;28;20647;-64
2020/12/27 11:15:35;;;;;;;6.95;4.80;;;2.20;61.60;;;;;;5032113;28;20077;-64
2020/12/27 11:18:01;;;;;;;7.38;5.25;;;2.20;61.50;;;;;;5033569;28;20535;-63
2020/12/27 11:20:28;;;;;;;6.97;4.88;;;2.30;61.50;;;;;;5033925;28;20043;-60
2020/12/27 11:22:55;;;;;;;6.43;5.07;;;2.30;61.40;;;;;;5015979;28;20090;-62
2020/12/27 11:25:20;;;;;;;6.68;4.60;;;2.30;61.40;;;;;;5033351;28;20169;-60
2020/12/27 11:27:46;;;;;;;7.18;4.50;;;2.20;61.20;;;;;;5015838;28;20124;-61
2020/12/27 11:30:12;;;;;;;6.80;5.07;;;2.20;61.20;;;;;;5033420;28;20496;-63
2020/12/27 11:32:37;;;;;;;6.13;4.25;;;2.20;61.50;;;;;;5033341;28;20034;-60
2020/12/27 11:35:03;;;;;;;6.13;4.88;;;2.20;61.00;;;;;;5032814;28;20036;-60
2020/12/27 11:37:28;;;;;;;6.47;4.68;;;2.20;61.20;;;;;;5015337;28;20049;-61
2020/12/27 11:39:54;;;;;;;7.40;5.03;;;2.20;61.20;;;;;;5033173;28;20454;-62
2020/12/27 11:42:23;;;;;;;7.97;4.63;;;2.20;61.20;;;;;;5033235;28;20033;-59
2020/12/27 11:44:48;;;;;;;7.28;5.40;;;2.20;61.40;;;;;;5032825;28;20538;-59
2020/12/27 11:47:14;;;;;;;6.05;4.40;;;2.30;61.30;;;;;;5032941;28;20069;-61
2020/12/27 11:49:40;;;;;;;6.88;4.72;;;2.30;61.00;;;;;;5032937;28;20112;-58
2020/12/27 11:52:05;;;;;;;7.35;4.55;;;2.30;60.80;;;;;;5015416;28;20349;-61
2020/12/27 11:54:31;;;;;;;6.32;4.78;;;2.30;60.70;;;;;;5032749;28;20068;-60
2020/12/27 11:56:56;;;;;;;7.20;5.38;;;2.30;60.50;;;;;;5032832;28;20563;-61
2020/12/27 11:59:23;;;;;;;6.65;4.80;;;2.30;60.40;;;;;;5032805;28;20029;-60
2020/12/27 12:01:49;;;;;;;8.57;4.75;;;2.30;60.40;;;;;;5033139;28;20125;-60
2020/12/27 12:04:15;;;;;;;8.80;5.05;;;2.30;60.30;;;;;;5032271;28;20451;-62
2020/12/27 12:06:42;;;;;;;6.57;4.50;;;2.30;60.40;;;;;;5032422;28;20041;-60
2020/12/27 12:09:08;;;;;;;7.25;5.00;;;2.30;60.20;;;;;;5015690;28;20086;-60
2020/12/27 12:11:37;;;;;;;5.68;4.70;;;2.30;60.30;;;;;;5032784;28;20116;-62
2020/12/27 12:14:04;;;;;;;7.68;5.32;;;2.30;60.40;;;;;;5032653;28;20124;-62
2020/12/27 12:16:30;;;;;;;6.00;4.05;;;2.20;60.60;;;;;;5033020;28;20030;-58
2020/12/27 12:18:59;;;;;;;6.60;4.82;;;2.30;60.70;;;;;;5032854;28;20033;-59
2020/12/27 12:21:25;;;;;;;9.05;5.00;;;2.30;60.50;;;;;;5032556;28;20049;-62
2020/12/27 12:23:51;;;;;;;7.07;4.50;;;2.30;60.60;;;;;;5033916;28;20452;-64
2020/12/27 12:26:19;;;;;;;6.35;4.45;;;2.40;60.20;;;;;;5058881;22;20033;-67
2020/12/27 12:28:45;;;;;;;6.95;4.45;;;2.40;60.40;;;;;;5034198;28;20155;-67
2020/12/27 12:31:12;;;;;;;7.47;4.70;;;2.40;60.40;;;;;;5052182;28;20067;-68
2020/12/27 12:33:38;;;;;;;5.72;4.78;;;2.40;60.60;;;;;;5051922;28;20021;-67
2020/12/27 12:36:04;;;;;;;7.78;5.18;;;2.40;60.60;;;;;;5051686;28;20021;-67
2020/12/27 12:38:29;;;;;;;5.47;4.53;;;2.40;60.60;;;;;;5034070;28;20036;-68
2020/12/27 12:40:55;;;;;;;5.88;4.57;;;2.40;60.60;;;;;;5033862;28;20446;-69
2020/12/27 12:43:21;;;;;;;7.97;4.70;;;2.40;60.70;;;;;;5052325;28;20036;-68
2020/12/27 12:45:46;;;;;;;7.03;4.53;;;2.50;60.80;;;;;;5031792;28;20064;-67
2020/12/27 12:48:12;;;;;;;6.00;4.45;;;2.50;60.70;;;;;;5058165;28;20499;-68
2020/12/27 12:50:38;;;;;;;6.78;4.95;;;2.40;60.80;;;;;;5053669;28;20169;-68
2020/12/27 12:53:03;;;;;;;8.27;4.97;;;2.30;61.30;;;;;;5072265;28;20032;-67
2020/12/27 12:55:29;;;;;;;7.32;5.00;;;2.40;61.70;;;;;;5053893;28;20036;-68
2020/12/27 12:57:54;;;;;;;6.72;4.95;;;2.40;61.80;;;;;;5072313;28;20036;-67
2020/12/27 13:00:20;;;;;;;6.68;4.78;;;2.40;61.60;;;;;;5071992;28;20437;-68